createdAt,value
2023-04-02T00:01:04.283Z,95.23
2023-04-02T00:03:43.751Z,94.35
2023-04-02T00:06:34.872Z,94.25
2023-04-02T00:09:22.581Z,93.85
2023-04-02T00:11:54.719Z,93.66
2023-04-02T00:14:27.172Z,94.06
2023-04-02T00:16:56.355Z,94.45
2023-04-02T00:19:38.266Z,93.48
2023-04-02T00:22:07.852Z,93.49
2023-04-02T00:24:34.360Z,93.38
2023-04-02T00:27:01.234Z,92.54
2023-04-02T00:29:27.711Z,93.08
2023-04-02T00:31:54.923Z,93.44
2023-04-02T00:34:31.754Z,92.99
2023-04-02T00:36:59.038Z,93.41
2023-04-02T00:39:39.390Z,93.59
2023-04-02T00:42:06.371Z,92.76
2023-04-02T00:44:38.626Z,92.85
2023-04-02T00:47:31.794Z,93.08
2023-04-02T00:50:35.841Z,93.42
2023-04-02T00:53:12.174Z,92.55
2023-04-02T00:55:41.890Z,92.38
2023-04-02T00:58:26.037Z,91.58
2023-04-02T01:00:53.971Z,91.77
2023-04-02T01:03:22.783Z,92.31
2023-04-02T01:06:05.063Z,92.77
2023-04-02T01:08:56.787Z,93.04
2023-04-02T01:11:36.352Z,92.88
2023-04-02T01:14:02.865Z,92.54
2023-04-02T01:16:33.103Z,92.99
2023-04-02T01:19:20.898Z,92.90
2023-04-02T01:22:02.354Z,93.38
2023-04-02T01:24:34.733Z,93.33
2023-04-02T01:27:13.732Z,93.44
2023-04-02T01:29:45.520Z,93.50
2023-04-02T01:32:23.000Z,93.10
2023-04-02T01:34:52.533Z,92.74
2023-04-02T01:37:46.764Z,92.75
2023-04-02T01:40:31.522Z,92.40
2023-04-02T01:43:16.232Z,92.28
2023-04-02T01:45:43.035Z,91.26
2023-04-02T01:48:16.746Z,90.59
